createdAt,value
2018-04-11T00:01:22.513Z,20.37
2018-04-11T00:03:51.124Z,20.10
2018-04-11T00:06:19.538Z,20.70
2018-04-11T00:08:47.834Z,17.40
2018-04-11T00:11:16.162Z,19.70
2018-04-11T00:13:44.455Z,23.33
2018-04-11T00:16:13.156Z,22.23
2018-04-11T00:18:41.454Z,22.30
2018-04-11T00:21:09.898Z,22.70
2018-04-11T00:23:38.611Z,23.37
2018-04-11T00:26:06.924Z,23.17
2018-04-11T00:28:35.224Z,23.70
2018-04-11T00:31:03.914Z,22.67
2018-04-11T00:33:32.596Z,23.67
2018-04-11T00:36:01.276Z,23.07
2018-04-11T00:38:30.268Z,24.00
2018-04-11T00:40:58.961Z,23.97
2018-04-11T00:43:27.304Z,23.57
2018-04-11T00:45:55.605Z,23.87
2018-04-11T00:48:23.889Z,23.20
2018-04-11T00:50:52.577Z,23.60
2018-04-11T00:53:27.958Z,23.70
2018-04-11T00:55:56.246Z,24.10
2018-04-11T00:58:24.544Z,23.50
2018-04-11T01:00:52.867Z,22.97
2018-04-11T01:03:22.417Z,24.47
2018-04-11T01:05:50.707Z,24.17
2018-04-11T01:08:19.429Z,23.57
2018-04-11T01:10:47.845Z,22.43
2018-04-11T01:13:16.125Z,22.20
2018-04-11T01:15:44.445Z,22.30
2018-04-11T01:18:13.135Z,22.30
2018-04-11T01:20:41.834Z,24.43
2018-04-11T01:23:10.126Z,22.60
2018-04-11T01:25:38.446Z,23.90
2018-04-11T01:28:06.925Z,25.10
2018-04-11T01:30:36.563Z,25.40
2018-04-11T01:33:06.260Z,23.70
2018-04-11T01:35:36.240Z,18.87
2018-04-11T01:38:05.467Z,24.07
2018-04-11T01:40:35.222Z,24.13
2018-04-11T01:43:04.455Z,25.07
2018-04-11T01:45:33.479Z,23.40
2018-04-11T01:48:01.769Z,25.57
2018-04-11T01:50:30.489Z,23.30
2018-04-11T01:52:58.780Z,23.53
2018-04-11T01:55:27.091Z,25.83
2018-04-11T01:57:55.387Z,26.10
2018-04-11T02:00:24.068Z,26.07
2018-04-11T02:02:52.754Z,25.00
2018-04-11T02:05:21.470Z,25.40
2018-04-11T02:07:49.760Z,25.97
2018-04-11T02:10:18.042Z,24.87
2018-04-11T02:12:46.338Z,25.37
2018-04-11T02:15:14.622Z,25.03
2018-04-11T02:17:42.911Z,25.80
2018-04-11T02:20:11.246Z,26.50
2018-04-11T02:22:39.537Z,26.93
2018-04-11T02:25:08.136Z,25.80
2018-04-11T02:27:36.462Z,27.13
2018-04-11T02:30:04.764Z,25.20
2018-04-11T02:32:33.379Z,20.57
2018-04-11T02:35:01.703Z,27.03
2018-04-11T02:37:29.989Z,24.13
2018-04-11T02:39:58.301Z,23.57
2018-04-11T02:42:26.630Z,25.40
2018-04-11T02:44:54.938Z,25.60
2018-04-11T02:47:23.245Z,24.33
2018-04-11T02:49:51.828Z,25.33
2018-04-11T02:52:20.125Z,17.23
2018-04-11T02:54:48.841Z,26.27
2018-04-11T02:57:17.231Z,23.87
2018-04-11T02:59:45.519Z,22.07
2018-04-11T03:02:13.840Z,26.67
2018-04-11T03:04:42.561Z,24.33
2018-04-11T03:07:10.859Z,25.50
2018-04-11T03:09:39.152Z,23.97
2018-04-11T03:12:07.456Z,25.90
2018-04-11T03:14:35.748Z,27.37
2018-04-11T03:17:04.070Z,28.57
2018-04-11T03:19:32.356Z,29.03
2018-04-11T03:22:00.668Z,27.67
2018-04-11T03:24:29.061Z,26.00
2018-04-11T03:26:57.349Z,25.70
2018-04-11T03:29:25.666Z,28.60
2018-04-11T03:31:54.253Z,26.07
2018-04-11T03:34:22.632Z,30.00
2018-04-11T03:36:50.946Z,28.77
2018-04-11T03:39:19.277Z,29.33
2018-04-11T03:41:47.563Z,24.30
2018-04-11T03:44:15.860Z,27.63
2018-04-11T03:46:44.606Z,24.87
2018-04-11T03:49:13.219Z,27.13
2018-04-11T03:51:41.794Z,21.30
2018-04-11T03:54:10.378Z,21.57
2018-04-11T03:56:38.674Z,26.20
2018-04-11T03:59:07.371Z,23.00
2018-04-11T04:01:35.717Z,27.20
2018-04-11T04:04:04.016Z,28.50
2018-04-11T04:06:32.739Z,28.77
2018-04-11T04:09:01.249Z,27.10
2018-04-11T04:11:29.533Z,28.63
2018-04-11T04:17:16.330Z,28.07
2018-04-11T04:19:56.457Z,28.47
2018-04-11T04:22:24.781Z,28.50
2018-04-11T04:24:53.075Z,26.00
2018-04-11T04:27:21.411Z,27.97
2018-04-11T04:29:49.694Z,27.80
2018-04-11T04:32:18.011Z,27.53
2018-04-11T04:34:46.675Z,30.10
2018-04-11T04:37:14.962Z,28.63
2018-04-11T04:39:43.244Z,28.87
2018-04-11T04:42:11.573Z,30.07
2018-04-11T04:44:40.186Z,29.93
2018-04-11T04:47:08.495Z,21.50
2018-04-11T04:49:36.792Z,28.97
2018-04-11T04:52:05.085Z,28.70
2018-04-11T04:54:33.446Z,29.30
2018-04-11T04:57:01.750Z,28.83
2018-04-11T04:59:30.150Z,29.37
2018-04-11T05:01:58.470Z,26.87
2018-04-11T05:04:27.186Z,28.00
2018-04-11T05:06:55.506Z,28.60
2018-04-11T05:09:23.808Z,28.77
2018-04-11T05:11:52.140Z,26.70
2018-04-11T05:14:20.449Z,27.90
2018-04-11T05:16:49.137Z,30.23
2018-04-11T05:19:17.496Z,27.70
2018-04-11T05:21:45.853Z,28.90
2018-04-11T05:24:14.568Z,29.77
2018-04-11T05:26:42.886Z,28.30
2018-04-11T05:29:11.193Z,18.70
2018-04-11T05:31:39.520Z,18.70
2018-04-11T05:34:08.252Z,18.67
2018-04-11T05:36:36.645Z,16.60
2018-04-11T05:39:05.013Z,13.63
2018-04-11T05:41:33.306Z,19.70
2018-04-11T05:44:01.614Z,14.87
2018-04-11T05:46:30.341Z,14.73
2018-04-11T05:48:58.688Z,13.83
2018-04-11T05:51:27.003Z,14.40
2018-04-11T05:53:55.330Z,14.83
2018-04-11T05:56:24.063Z,23.20
2018-04-11T05:58:52.347Z,24.97
2018-04-11T06:01:20.640Z,25.57
2018-04-11T06:03:49.262Z,27.47
2018-04-11T06:06:17.949Z,26.23
2018-04-11T06:08:46.271Z,28.30
2018-04-11T06:11:14.659Z,26.03
2018-04-11T06:13:42.979Z,25.23
2018-04-11T06:16:11.285Z,25.17
2018-04-11T06:18:39.624Z,24.87
2018-04-11T06:21:08.311Z,27.23
2018-04-11T06:23:37.016Z,23.93
2018-04-11T06:26:05.375Z,24.80
2018-04-11T06:28:34.067Z,25.30
2018-04-11T06:31:02.739Z,25.50
2018-04-11T06:33:31.723Z,25.17
2018-04-11T06:36:00.310Z,24.77
2018-04-11T06:38:28.665Z,26.07
2018-04-11T06:40:57.897Z,25.60
2018-04-11T06:43:26.648Z,23.83
2018-04-11T06:45:54.978Z,24.97
2018-04-11T06:48:23.257Z,24.90
2018-04-11T06:50:51.554Z,25.70
2018-04-11T06:53:20.142Z,23.17
2018-04-11T06:55:48.482Z,26.73
2018-04-11T06:58:16.815Z,24.13
2018-04-11T07:00:45.197Z,30.60
2018-04-11T07:03:13.522Z,23.03
2018-04-11T07:05:41.869Z,16.70
2018-04-11T07:08:10.376Z,14.90
2018-04-11T07:10:39.066Z,17.53
2018-04-11T07:13:07.618Z,18.40
2018-04-11T07:15:35.954Z,18.73
2018-04-11T07:18:04.253Z,22.03
2018-04-11T07:20:32.545Z,18.43
2018-04-11T07:23:01.294Z,22.37
2018-04-11T07:25:29.606Z,18.60
2018-04-11T07:27:57.967Z,19.23
2018-04-11T07:30:26.454Z,18.27
2018-04-11T07:32:54.773Z,21.80
2018-04-11T07:35:23.087Z,22.57
2018-04-11T07:37:51.374Z,23.13
2018-04-11T07:40:19.697Z,21.00
2018-04-11T07:42:48.028Z,21.80
2018-04-11T07:45:16.341Z,19.00
2018-04-11T07:47:44.674Z,21.23
2018-04-11T07:50:13.015Z,21.90
2018-04-11T07:52:41.302Z,21.73
2018-04-11T07:55:09.639Z,21.63
2018-04-11T07:57:38.002Z,19.33
2018-04-11T08:00:06.913Z,20.30
2018-04-11T08:02:35.215Z,20.10
2018-04-11T08:05:03.523Z,18.97
2018-04-11T08:07:31.872Z,17.17
2018-04-11T08:10:00.196Z,21.30
2018-04-11T08:12:28.513Z,21.10
2018-04-11T08:14:57.369Z,20.97
2018-04-11T08:17:26.615Z,20.80
2018-04-11T08:19:54.918Z,17.87
2018-04-11T08:22:23.214Z,18.50
2018-04-11T08:24:51.501Z,21.00
2018-04-11T08:27:19.806Z,17.77
2018-04-11T08:29:48.549Z,17.97
2018-04-11T08:32:16.839Z,17.47
2018-04-11T08:34:45.218Z,18.37
2018-04-11T08:37:13.570Z,18.43
2018-04-11T08:39:42.690Z,21.07
2018-04-11T08:42:11.003Z,19.93
2018-04-11T08:44:39.727Z,20.70
2018-04-11T08:47:09.629Z,16.50
2018-04-11T08:49:38.269Z,19.10
2018-04-11T08:52:06.609Z,18.73
2018-04-11T08:54:35.346Z,18.37
2018-04-11T08:57:04.050Z,18.63
2018-04-11T08:59:32.350Z,15.50
2018-04-11T09:02:00.661Z,19.13
2018-04-11T09:04:28.962Z,19.67
2018-04-11T09:06:57.654Z,19.17
2018-04-11T09:09:26.636Z,18.43
2018-04-11T09:11:54.953Z,18.93
2018-04-11T09:14:23.290Z,18.90
2018-04-11T09:16:51.642Z,18.03
2018-04-11T09:19:20.021Z,18.17
2018-04-11T09:21:48.509Z,18.23
2018-04-11T09:24:17.106Z,18.90
2018-04-11T09:26:45.444Z,19.10
2018-04-11T09:29:13.759Z,18.60
2018-04-11T09:31:42.048Z,18.83
2018-04-11T09:34:10.346Z,18.90
2018-04-11T09:36:38.658Z,19.33
2018-04-11T09:39:06.966Z,17.80
2018-04-11T09:41:36.245Z,18.10
2018-04-11T09:44:04.562Z,18.60
2018-04-11T09:46:33.268Z,18.53
2018-04-11T09:49:01.585Z,15.63
2018-04-11T09:51:29.921Z,16.20
2018-04-11T09:53:58.310Z,18.17
2018-04-11T09:56:26.647Z,19.03
2018-04-11T09:58:55.407Z,17.80
2018-04-11T10:01:23.753Z,18.17
2018-04-11T10:03:52.123Z,19.33
2018-04-11T10:06:20.542Z,18.57
2018-04-11T10:08:48.838Z,17.27
2018-04-11T10:11:17.547Z,18.47
2018-04-11T10:13:45.857Z,19.30
2018-04-11T10:16:14.171Z,17.23
2018-04-11T10:18:42.457Z,20.83
2018-04-11T10:21:11.554Z,16.30
2018-04-11T10:23:39.927Z,19.20
2018-04-11T10:26:08.214Z,20.70
2018-04-11T10:28:36.914Z,19.10
2018-04-11T10:31:05.690Z,18.60
2018-04-11T10:33:34.403Z,19.57
2018-04-11T10:36:02.692Z,20.10
2018-04-11T10:38:31.009Z,17.27
2018-04-11T10:40:59.314Z,20.70
2018-04-11T10:43:27.994Z,20.73
2018-04-11T10:45:56.710Z,20.00
2018-04-11T10:48:25.021Z,20.27
2018-04-11T10:50:53.344Z,21.10
2018-04-11T10:53:22.025Z,21.30
2018-04-11T10:55:50.713Z,19.30
2018-04-11T10:58:19.430Z,20.23
2018-04-11T11:00:47.768Z,16.63
2018-04-11T11:03:16.072Z,22.50
2018-04-11T11:05:44.501Z,24.10
2018-04-11T11:08:12.799Z,21.80
2018-04-11T11:10:41.123Z,22.30
2018-04-11T11:13:09.422Z,17.67
2018-04-11T11:15:37.810Z,20.47
2018-04-11T11:18:06.185Z,22.90
2018-04-11T11:20:34.488Z,22.23
2018-04-11T11:23:03.177Z,21.20
2018-04-11T11:25:31.914Z,23.00
2018-04-11T11:28:00.308Z,24.80
2018-04-11T11:30:28.955Z,21.37
2018-04-11T11:32:57.276Z,22.93
2018-04-11T11:35:25.981Z,24.33
2018-04-11T11:37:54.715Z,25.30
2018-04-11T11:40:23.021Z,25.40
2018-04-11T11:42:51.329Z,24.60
2018-04-11T11:45:20.084Z,25.47
2018-04-11T11:47:48.369Z,24.20
2018-04-11T11:50:16.735Z,26.90
2018-04-11T11:52:45.142Z,27.37
2018-04-11T11:55:13.867Z,27.70
2018-04-11T11:57:42.220Z,26.80
2018-04-11T12:00:10.575Z,26.87
2018-04-11T12:02:38.872Z,22.57
2018-04-11T12:05:07.591Z,25.93
2018-04-11T12:07:35.885Z,26.70
2018-04-11T12:10:04.384Z,21.13
2018-04-11T12:12:32.710Z,27.43
2018-04-11T12:15:01.015Z,26.00
2018-04-11T12:17:29.314Z,27.23
2018-04-11T12:19:57.633Z,26.63
2018-04-11T12:22:25.947Z,26.77
2018-04-11T12:24:54.278Z,22.37
2018-04-11T12:27:22.983Z,27.97
2018-04-11T12:29:51.695Z,27.43
2018-04-11T12:32:20.032Z,27.60
2018-04-11T12:34:48.758Z,29.00
2018-04-11T12:37:17.127Z,27.23
2018-04-11T12:39:45.791Z,29.50
2018-04-11T12:42:14.125Z,28.73
2018-04-11T12:44:42.440Z,30.40
2018-04-11T12:47:10.741Z,28.83
2018-04-11T12:49:39.285Z,28.47
2018-04-11T12:52:08.043Z,29.50
2018-04-11T12:54:36.348Z,29.60
2018-04-11T12:57:04.690Z,30.10
2018-04-11T12:59:33.068Z,30.27
2018-04-11T13:02:01.354Z,29.57
2018-04-11T13:04:29.699Z,29.10
2018-04-11T13:06:58.093Z,29.77
2018-04-11T13:09:26.490Z,28.50
2018-04-11T13:11:55.412Z,29.00
2018-04-11T13:14:24.427Z,29.03
2018-04-11T13:16:53.881Z,30.33
2018-04-11T13:19:22.368Z,29.20
2018-04-11T13:21:50.753Z,25.37
2018-04-11T13:24:19.468Z,25.33
2018-04-11T13:26:48.098Z,30.93
2018-04-11T13:29:16.511Z,27.57
2018-04-11T13:31:44.899Z,28.00
2018-04-11T13:34:13.258Z,28.20
2018-04-11T13:36:41.563Z,27.50
2018-04-11T13:39:09.892Z,28.80
2018-04-11T13:41:38.192Z,24.70
2018-04-11T13:44:06.503Z,28.03
2018-04-11T13:46:35.351Z,28.30
2018-04-11T13:49:03.665Z,30.97
2018-04-11T13:51:32.457Z,27.33
2018-04-11T13:54:01.277Z,30.00
2018-04-11T13:56:29.566Z,30.03
2018-04-11T13:58:58.145Z,30.37
2018-04-11T14:01:26.492Z,31.63
2018-04-11T14:03:54.816Z,24.67
2018-04-11T14:06:23.131Z,33.80
2018-04-11T14:08:51.464Z,28.97
2018-04-11T14:11:19.757Z,31.63
2018-04-11T14:13:48.110Z,30.97
2018-04-11T14:16:16.534Z,27.60
2018-04-11T14:18:44.937Z,33.77
2018-04-11T14:21:13.610Z,31.57
2018-04-11T14:23:42.147Z,30.93
2018-04-11T14:26:10.528Z,30.80
2018-04-11T14:28:38.877Z,30.83
2018-04-11T14:31:07.245Z,28.47
2018-04-11T14:33:35.596Z,30.30
2018-04-11T14:36:04.034Z,31.27
2018-04-11T14:38:32.330Z,29.37
2018-04-11T14:41:00.998Z,29.43
2018-04-11T14:43:29.357Z,30.37
2018-04-11T14:45:57.751Z,29.70
2018-04-11T14:48:26.307Z,27.30
2018-04-11T14:50:54.617Z,30.53
2018-04-11T14:53:23.376Z,28.47
2018-04-11T14:55:51.693Z,26.90
2018-04-11T14:58:20.093Z,27.20
2018-04-11T15:00:49.022Z,26.97
2018-04-11T15:03:17.461Z,27.00
2018-04-11T15:05:46.159Z,27.93
2018-04-11T15:08:14.931Z,30.17
2018-04-11T15:10:43.644Z,28.77
2018-04-11T15:13:11.970Z,29.60
2018-04-11T15:15:40.310Z,30.33
2018-04-11T15:18:08.620Z,29.50
2018-04-11T15:20:36.931Z,31.20
2018-04-11T15:23:05.363Z,30.40
2018-04-11T15:25:33.682Z,28.87
2018-04-11T15:28:02.369Z,27.23
2018-04-11T15:30:31.129Z,28.30
2018-04-11T15:32:59.420Z,28.43
2018-04-11T15:35:27.779Z,28.50
2018-04-11T15:37:56.101Z,28.67
2018-04-11T15:40:24.395Z,28.50
2018-04-11T15:42:52.698Z,24.60
2018-04-11T15:45:21.014Z,28.27
2018-04-11T15:47:49.338Z,27.03
2018-04-11T15:50:17.677Z,28.37
2018-04-11T15:52:46.403Z,28.97
2018-04-11T15:55:14.708Z,28.83
2018-04-11T15:57:43.081Z,27.13
2018-04-11T16:00:11.433Z,28.23
2018-04-11T16:02:39.736Z,28.27
2018-04-11T16:05:08.035Z,27.57
2018-04-11T16:07:36.758Z,27.50
2018-04-11T16:10:05.116Z,29.53
2018-04-11T16:12:33.839Z,28.47
2018-04-11T16:15:02.259Z,25.90
2018-04-11T16:17:31.014Z,28.53
2018-04-11T16:19:59.333Z,28.47
2018-04-11T16:22:28.069Z,28.93
2018-04-11T16:24:56.367Z,28.17
2018-04-11T16:27:24.723Z,27.27
2018-04-11T16:29:53.053Z,27.63
2018-04-11T16:32:21.756Z,28.90
2018-04-11T16:34:50.692Z,30.07
2018-04-11T16:37:19.117Z,27.40
2018-04-11T16:39:47.832Z,29.20
2018-04-11T16:42:16.172Z,30.40
2018-04-11T16:44:44.879Z,30.30
2018-04-11T16:47:13.601Z,30.47
2018-04-11T16:49:42.354Z,30.57
2018-04-11T16:52:11.065Z,29.10
2018-04-11T16:54:39.402Z,29.13
2018-04-11T16:57:08.096Z,28.00
2018-04-11T16:59:36.809Z,29.23
2018-04-11T17:02:05.454Z,28.97
2018-04-11T17:04:34.154Z,30.83
2018-04-11T17:07:02.518Z,27.90
2018-04-11T17:09:30.870Z,28.47
2018-04-11T17:11:59.226Z,27.50
2018-04-11T17:14:27.977Z,28.37
2018-04-11T17:16:56.954Z,27.30
2018-04-11T17:19:25.256Z,27.33
2018-04-11T17:22:05.422Z,27.60
2018-04-11T17:24:45.702Z,26.47
2018-04-11T17:27:25.735Z,27.63
2018-04-11T17:30:05.860Z,27.60
2018-04-11T17:32:34.588Z,25.90
2018-04-11T17:35:02.871Z,26.53
2018-04-11T17:37:31.712Z,27.10
2018-04-11T17:40:00.606Z,30.13
2018-04-11T17:42:29.001Z,28.50
2018-04-11T17:44:57.305Z,28.47
2018-04-11T17:47:25.877Z,29.80
2018-04-11T17:49:54.629Z,31.10
2018-04-11T17:52:23.464Z,28.23
2018-04-11T17:54:51.812Z,28.27
2018-04-11T17:57:20.153Z,27.83
2018-04-11T17:59:48.502Z,25.13
2018-04-11T18:02:16.881Z,28.87
2018-04-11T18:04:45.751Z,29.97
2018-04-11T18:07:14.093Z,29.90
2018-04-11T18:09:42.470Z,28.97
2018-04-11T18:12:11.021Z,29.50
2018-04-11T18:14:39.549Z,29.30
2018-04-11T18:17:07.918Z,27.53
2018-04-11T18:19:36.358Z,29.40
2018-04-11T18:22:04.669Z,29.33
2018-04-11T18:24:33.494Z,29.03
2018-04-11T18:27:01.844Z,29.03
2018-04-11T18:29:30.199Z,30.20
2018-04-11T18:31:58.526Z,29.20
2018-04-11T18:34:28.076Z,30.90
2018-04-11T18:36:57.023Z,28.87
2018-04-11T18:39:25.511Z,30.20
2018-04-11T18:41:54.331Z,30.20
2018-04-11T18:44:22.643Z,31.13
2018-04-11T18:46:51.032Z,31.33
2018-04-11T18:49:19.397Z,30.47
2018-04-11T18:51:48.069Z,28.97
2018-04-11T18:54:16.475Z,29.33
2018-04-11T18:56:44.964Z,31.57
2018-04-11T18:59:13.374Z,26.87
2018-04-11T19:01:41.884Z,30.67
2018-04-11T19:04:10.679Z,30.10
2018-04-11T19:06:39.409Z,30.57
2018-04-11T19:09:10.236Z,31.10
2018-04-11T19:11:39.072Z,29.40
2018-04-11T19:14:07.468Z,30.53
2018-04-11T19:16:35.920Z,29.90
2018-04-11T19:19:04.270Z,31.27
2018-04-11T19:21:32.710Z,31.90
2018-04-11T19:24:01.492Z,28.57
2018-04-11T19:26:29.872Z,31.03
2018-04-11T19:28:58.242Z,28.03
2018-04-11T19:31:27.237Z,31.30
2018-04-11T19:33:55.671Z,29.60
2018-04-11T19:36:24.307Z,29.33
2018-04-11T19:38:53.117Z,29.93
2018-04-11T19:41:21.452Z,33.03
2018-04-11T19:43:50.116Z,28.97
2018-04-11T19:46:18.460Z,32.70
2018-04-11T19:48:47.183Z,31.43
2018-04-11T19:51:15.525Z,31.03
2018-04-11T19:53:43.929Z,30.60
2018-04-11T19:56:12.230Z,27.77
2018-04-11T19:58:40.584Z,30.80
2018-04-11T20:01:08.939Z,29.70
2018-04-11T20:03:37.281Z,32.67
2018-04-11T20:06:06.114Z,31.83
2018-04-11T20:08:34.479Z,28.83
2018-04-11T20:11:02.953Z,31.53
2018-04-11T20:13:31.673Z,32.80
2018-04-11T20:16:00.020Z,30.17
2018-04-11T20:18:28.503Z,32.70
2018-04-11T20:20:57.006Z,33.27
2018-04-11T20:23:25.652Z,32.30
2018-04-11T20:25:54.375Z,32.50
2018-04-11T20:28:22.735Z,32.37
2018-04-11T20:30:51.895Z,32.43
2018-04-11T20:33:20.960Z,29.27
2018-04-11T20:35:49.279Z,34.37
2018-04-11T20:38:17.766Z,30.00
2018-04-11T20:40:46.570Z,33.67
2018-04-11T20:43:14.873Z,33.40
2018-04-11T20:45:43.239Z,33.43
2018-04-11T20:48:11.597Z,29.77
2018-04-11T20:50:40.308Z,30.03
2018-04-11T20:53:08.599Z,29.80
2018-04-11T20:55:36.937Z,30.30
2018-04-11T20:58:05.752Z,32.83
2018-04-11T21:00:34.428Z,26.67
2018-04-11T21:03:03.010Z,31.50
2018-04-11T21:05:31.324Z,31.10
2018-04-11T21:07:59.633Z,33.60
2018-04-11T21:10:27.950Z,32.93
2018-04-11T21:12:56.250Z,31.30
2018-04-11T21:15:24.551Z,30.53
2018-04-11T21:17:52.891Z,30.27
2018-04-11T21:20:21.216Z,28.40
2018-04-11T21:22:49.959Z,31.70
2018-04-11T21:25:18.313Z,28.03
2018-04-11T21:27:46.638Z,31.27
2018-04-11T21:30:15.067Z,18.80
2018-04-11T21:32:43.485Z,11.50
2018-04-11T21:35:11.786Z,10.37
2018-04-11T21:37:40.505Z,9.97
2018-04-11T21:40:08.822Z,11.17
2018-04-11T21:42:37.231Z,11.27
2018-04-11T21:45:05.540Z,12.07
2018-04-11T21:47:33.839Z,12.43
2018-04-11T21:50:02.133Z,12.10
2018-04-11T21:52:30.474Z,12.33
2018-04-11T21:54:59.033Z,12.03
2018-04-11T21:57:27.317Z,11.90
2018-04-11T21:59:56.061Z,12.20
2018-04-11T22:02:25.130Z,11.80
2018-04-11T22:04:54.118Z,11.00
2018-04-11T22:07:22.562Z,11.53
2018-04-11T22:09:51.279Z,12.23
2018-04-11T22:12:19.566Z,12.10
2018-04-11T22:14:47.896Z,11.20
2018-04-11T22:17:16.351Z,11.67
2018-04-11T22:19:44.657Z,11.70
2018-04-11T22:22:12.965Z,10.37
2018-04-11T22:24:41.274Z,11.13
2018-04-11T22:27:09.674Z,10.90
2018-04-11T22:29:38.371Z,11.40
2018-04-11T22:32:06.676Z,10.43
2018-04-11T22:34:35.737Z,11.20
2018-04-11T22:37:04.045Z,10.73
2018-04-11T22:39:32.357Z,10.90
2018-04-11T22:42:00.672Z,10.93
2018-04-11T22:44:28.967Z,10.80
2018-04-11T22:46:57.675Z,10.90
2018-04-11T22:49:26.020Z,11.53
2018-04-11T22:51:54.314Z,11.13
2018-04-11T22:54:22.634Z,10.93
2018-04-11T22:56:50.961Z,10.90
2018-04-11T22:59:19.649Z,11.27
2018-04-11T23:01:47.953Z,11.83
2018-04-11T23:04:16.374Z,11.80
2018-04-11T23:06:44.656Z,11.10
2018-04-11T23:09:13.076Z,11.57
2018-04-11T23:11:41.413Z,11.43
2018-04-11T23:14:09.735Z,10.93
2018-04-11T23:16:38.017Z,11.70
2018-04-11T23:19:06.759Z,11.37
2018-04-11T23:21:35.039Z,10.80
2018-04-11T23:24:03.443Z,11.10
2018-04-11T23:26:32.241Z,10.70
2018-04-11T23:29:00.531Z,10.20
2018-04-11T23:31:28.834Z,10.00
2018-04-11T23:33:57.149Z,9.80
2018-04-11T23:36:25.832Z,10.23
2018-04-11T23:38:54.149Z,10.50
2018-04-11T23:41:22.528Z,10.80
2018-04-11T23:43:50.834Z,10.83
2018-04-11T23:46:19.161Z,11.17
2018-04-11T23:48:47.480Z,11.27
2018-04-11T23:51:15.805Z,11.93
2018-04-11T23:53:44.502Z,10.60
2018-04-11T23:56:12.833Z,11.03
2018-04-11T23:58:41.425Z,10.83
